»·PEaware :: N969DA KPSC-KPDX

N969DA :: KPSC-KPDX

FLIGHT INFORMATION

Flight Status: Arrived
Operator: Privately registered:
United States
More flights under this callsign
Pilot: Anonymous 20880 (20880)
Aircraft: Unknown
(DA62)
More flights by this aircraft type
Origin: KPSC Tri-Cities
United States
Destination: KPDX Portland Intl
United States
More flights between these airports :: More routes between these airports
Route:
File this flight plan on PilotEdge
Remarks:
Altitude:
(Current/Filed)
6,500ft
Speed:
(Current/Filed)
140kts
Departed: 16-Dec-18 07:20 AM
Arrived: 16-Dec-18 08:28 AM
Distance/Time
Traveled:
150nm/1:08
Distance/Time
To Go:
Arrived

Flight Plot

Page will automatically refresh every two minutes.

Flight plan parsing failed; only flown route is shown


Map Options




Map Legend


Flown Route
Filed Route
Departure Airport
Arrival Airport
Navaid (VOR, NDB)
Fix

Horizontal Profiles

Position Reports

Time Latitude Longitude Heading Altitude Ground
Speed
16-Dec-18 07:12 46.260654 -119.104091 316 410ft 0kts
16-Dec-18 07:13 46.260654 -119.104091 316 410ft 0kts
16-Dec-18 07:14 46.260654 -119.104091 316 410ft 0kts
16-Dec-18 07:15 46.260654 -119.104091 316 410ft 0kts
16-Dec-18 07:16 46.260654 -119.104091 316 410ft 0kts
16-Dec-18 07:17 46.260551 -119.104940 226 408ft 4kts
16-Dec-18 07:18 46.258854 -119.106961 242 407ft 10kts
16-Dec-18 07:19 46.272572 -119.125885 317 732ft 111kts
16-Dec-18 07:20 46.271070 -119.174490 256 1511ft 135kts
16-Dec-18 07:21 46.261477 -119.227387 256 2208ft 138kts
16-Dec-18 07:22 46.249903 -119.280437 250 2911ft 139kts
16-Dec-18 07:23 46.234778 -119.331228 250 3607ft 138kts
16-Dec-18 07:24 46.218925 -119.381781 246 4309ft 138kts
16-Dec-18 07:25 46.202298 -119.432874 249 4509ft 143kts
16-Dec-18 07:26 46.185374 -119.484928 249 4508ft 144kts
16-Dec-18 07:27 46.168259 -119.537432 249 4508ft 144kts
16-Dec-18 07:28 46.151138 -119.589843 249 4508ft 144kts
16-Dec-18 07:29 46.133989 -119.642238 249 4508ft 144kts
16-Dec-18 07:30 46.116809 -119.694618 248 4510ft 145kts
16-Dec-18 07:31 46.099549 -119.747137 248 4510ft 145kts
16-Dec-18 07:32 46.082260 -119.799639 248 4510ft 145kts
16-Dec-18 07:33 46.064914 -119.852213 248 4505ft 145kts
16-Dec-18 07:34 46.047516 -119.904842 248 4498ft 146kts
16-Dec-18 07:35 46.030135 -119.957308 248 4491ft 146kts
16-Dec-18 07:36 46.013274 -120.008103 248 4484ft 147kts
16-Dec-18 07:37 45.995723 -120.060867 248 4480ft 146kts
16-Dec-18 07:38 45.979602 -120.109221 248 4479ft 145kts
16-Dec-18 07:39 45.962399 -120.160787 247 3991ft 138kts
16-Dec-18 07:41 45.943939 -120.200262 206 3537ft 132kts
16-Dec-18 07:42 45.905540 -120.220745 203 3336ft 147kts
16-Dec-18 07:43 45.877354 -120.253713 250 3346ft 132kts
16-Dec-18 07:44 45.863695 -120.302547 250 3347ft 131kts
16-Dec-18 07:45 45.849363 -120.350419 240 3373ft 129kts
16-Dec-18 07:46 45.830202 -120.394756 239 3592ft 139kts
16-Dec-18 07:47 45.810084 -120.444203 239 3578ft 146kts
16-Dec-18 07:48 45.790756 -120.495950 244 3572ft 149kts
16-Dec-18 07:49 45.776456 -120.552275 247 3572ft 152kts
16-Dec-18 07:50 45.762037 -120.609508 247 3579ft 153kts
16-Dec-18 07:51 45.733994 -120.656209 218 2318ft 171kts
16-Dec-18 07:52 45.710190 -120.708973 244 1045ft 148kts
16-Dec-18 07:53 45.696028 -120.758672 245 1233ft 127kts
16-Dec-18 07:54 45.681897 -120.806703 243 1301ft 135kts
16-Dec-18 07:55 45.666063 -120.856001 243 1300ft 137kts
16-Dec-18 07:56 45.651767 -120.906375 261 1381ft 134kts
16-Dec-18 07:57 45.650873 -120.959269 269 1500ft 135kts
16-Dec-18 07:58 45.651755 -121.015029 269 1503ft 147kts
16-Dec-18 07:59 45.648218 -121.073988 250 1501ft 151kts
16-Dec-18 08:00 45.625211 -121.122200 222 1500ft 150kts
16-Dec-18 08:01 45.622265 -121.170937 327 1502ft 154kts
16-Dec-18 08:01 45.652551 -121.198092 327 1500ft 155kts
16-Dec-18 08:03 45.678002 -121.257500 293 1500ft 154kts
16-Dec-18 08:03 45.692784 -121.303994 293 1500ft 154kts
16-Dec-18 08:05 45.690867 -121.373547 270 1497ft 152kts
16-Dec-18 08:05 45.694557 -121.423833 278 1500ft 153kts
16-Dec-18 08:07 45.707719 -121.492482 285 1498ft 153kts
16-Dec-18 08:07 45.715320 -121.542122 274 1500ft 153kts
16-Dec-18 08:08 45.712483 -121.602479 259 1497ft 152kts
16-Dec-18 08:09 45.703496 -121.661629 257 1490ft 152kts
16-Dec-18 08:10 45.697194 -121.721694 267 1465ft 154kts
16-Dec-18 08:11 45.695573 -121.783647 273 1417ft 158kts
16-Dec-18 08:12 45.690432 -121.846045 244 1369ft 164kts
16-Dec-18 08:13 45.669273 -121.904512 234 1372ft 166kts
16-Dec-18 08:14 45.646095 -121.958854 231 1957ft 153kts
16-Dec-18 08:15 45.627932 -122.013625 241 2405ft 160kts
16-Dec-18 08:16 45.610112 -122.076116 242 2406ft 175kts
16-Dec-18 08:17 45.590087 -122.137813 236 2525ft 162kts
16-Dec-18 08:18 45.573931 -122.198476 252 2600ft 170kts
16-Dec-18 08:19 45.561967 -122.263711 229 2693ft 161kts
16-Dec-18 08:20 45.553905 -122.330725 274 2598ft 176kts
16-Dec-18 08:21 45.562929 -122.399237 282 2598ft 176kts
16-Dec-18 08:22 45.575808 -122.465601 287 2601ft 168kts
16-Dec-18 08:23 45.593330 -122.525371 298 2600ft 159kts
16-Dec-18 08:24 45.614902 -122.578941 298 2599ft 148kts
16-Dec-18 08:25 45.614970 -122.625056 217 1152ft 127kts
16-Dec-18 08:26 45.599992 -122.608499 122 215ft 92kts
16-Dec-18 08:27 45.590600 -122.584787 121 20ft 23kts
16-Dec-18 08:28 45.590245 -122.586945 199 20ft 5kts
16-Dec-18 08:29 45.588440 -122.582579 138 20ft 2kts
16-Dec-18 08:30 45.585765 -122.580692 149 20ft 10kts
16-Dec-18 08:31 45.585692 -122.580591 30 20ft 0kts
16-Dec-18 08:32 45.585692 -122.580591 30 20ft 0kts

Navigation Log

Ident Type
Flight plan parsing failed, navigation log unavailable